Time;durP1;ratioP1;P1;durP2;ratioP2;P2;SDS_P1;SDS_P2;PMS_P1;PMS_P2;Temp;Humidity;BMP_temperature;BMP_pressure;BME280_temperature;BME280_humidity;BME280_pressure;Samples;Min_cycle;Max_cycle;Signal;HPM_P1;HPM_P2
2023/05/20 00:00:13;;;;;;;18.00;10.88;;;;;;;11.94;100.00;96576.09;5057106;28;20036;-66
2023/05/20 00:02:38;;;;;;;16.10;10.55;;;;;;;11.95;100.00;96580.41;5062211;28;20051;-67
2023/05/20 00:05:04;;;;;;;16.23;10.85;;;;;;;12.02;100.00;96577.75;5057884;28;20037;-71
2023/05/20 00:07:30;;;;;;;14.40;10.35;;;;;;;11.99;100.00;96573.00;5062287;28;20047;-68
2023/05/20 00:09:56;;;;;;;18.45;11.18;;;;;;;12.04;100.00;96576.19;5062289;28;20064;-66
2023/05/20 00:12:21;;;;;;;17.15;10.73;;;;;;;12.07;100.00;96576.63;5055744;28;20617;-67
2023/05/20 00:14:47;;;;;;;17.45;10.77;;;;;;;12.19;100.00;96568.88;5061880;28;20094;-68
2023/05/20 00:17:12;;;;;;;18.83;11.38;;;;;;;12.25;100.00;96572.03;5057076;28;20036;-67
2023/05/20 00:19:37;;;;;;;18.30;11.40;;;;;;;12.21;100.00;96561.03;5061421;28;20127;-67
2023/05/20 00:22:04;;;;;;;20.83;10.80;;;;;;;12.26;100.00;96570.09;5058808;28;20055;-73
2023/05/20 00:24:29;;;;;;;14.65;10.88;;;;;;;12.21;100.00;96563.00;5059462;28;20063;-71
2023/05/20 00:26:54;;;;;;;18.02;12.07;;;;;;;12.24;100.00;96556.72;5061383;28;20040;-69
2023/05/20 00:29:20;;;;;;;18.52;11.65;;;;;;;12.24;100.00;96556.72;5038435;28;20040;-69
2023/05/20 00:31:46;;;;;;;19.63;11.85;;;;;;;12.29;100.00;96558.34;5061425;28;20504;-68
2023/05/20 00:34:11;;;;;;;17.90;12.25;;;;;;;12.30;100.00;96546.97;5055824;28;20075;-70
2023/05/20 00:36:37;;;;;;;22.73;12.57;;;;;;;12.28;100.00;96554.00;5043343;28;20063;-67
2023/05/20 00:39:02;;;;;;;16.67;11.60;;;;;;;12.27;100.00;96561.47;5059095;28;20040;-72
2023/05/20 00:41:28;;;;;;;17.88;11.27;;;;;;;12.23;100.00;96563.41;5060202;28;20489;-68
2023/05/20 00:43:54;;;;;;;18.15;11.70;;;;;;;12.23;100.00;96558.69;5060998;28;20109;-68
2023/05/20 00:46:20;;;;;;;17.35;11.88;;;;;;;12.21;100.00;96550.06;5057643;28;20048;-69
2023/05/20 00:48:46;;;;;;;14.70;11.02;;;;;;;12.24;100.00;96557.53;5061332;28;20064;-70
2023/05/20 00:51:13;;;;;;;17.10;11.15;;;;;;;12.23;100.00;96566.16;5056967;28;20079;-69
2023/05/20 00:53:38;;;;;;;19.05;12.25;;;;;;;12.20;100.00;96564.16;5060678;28;20040;-69
2023/05/20 00:56:04;;;;;;;19.45;11.68;;;;;;;12.17;100.00;96556.69;5039103;28;20040;-72
2023/05/20 00:58:31;;;;;;;17.23;12.10;;;;;;;12.12;100.00;96557.84;5069234;28;20047;-69
2023/05/20 01:00:56;;;;;;;19.55;11.95;;;;;;;12.18;100.00;96550.81;5061570;28;20507;-69
2023/05/20 01:03:22;;;;;;;20.55;12.43;;;;;;;12.15;100.00;96554.31;5063680;28;20290;-69
2023/05/20 01:05:47;;;;;;;18.55;11.93;;;;;;;12.16;100.00;96557.84;5080036;28;20040;-68
2023/05/20 01:08:13;;;;;;;17.83;11.70;;;;;;;12.20;100.00;96559.44;5059653;28;20048;-69
2023/05/20 01:10:41;;;;;;;18.92;11.65;;;;;;;12.24;100.00;96560.28;5060650;28;20051;-68
2023/05/20 01:13:13;;;;;;;19.70;12.80;;;;;;;12.15;100.00;96559.00;5054493;28;20052;-68
2023/05/20 01:15:39;;;;;;;20.33;11.73;;;;;;;12.10;100.00;96559.38;5060789;28;20081;-69
2023/05/20 01:18:09;;;;;;;21.60;11.55;;;;;;;12.05;100.00;96550.31;5058073;28;20048;-70
2023/05/20 01:20:36;;;;;;;17.45;12.20;;;;;;;12.07;100.00;96557.41;5060707;28;20056;-68
2023/05/20 01:23:03;;;;;;;20.40;12.52;;;;;;;12.09;100.00;96552.31;5041794;28;20097;-75
2023/05/20 01:25:28;;;;;;;19.48;12.10;;;;;;;12.04;100.00;96551.47;5058258;28;20048;-69
2023/05/20 01:27:58;;;;;;;15.90;11.63;;;;;;;12.02;100.00;96548.31;5061077;28;20043;-68
2023/05/20 01:30:34;;;;;;;18.35;12.73;;;;;;;12.03;100.00;96546.38;5056666;28;20032;-69
2023/05/20 01:33:10;;;;;;;19.25;12.25;;;;;;;12.06;100.00;96537.38;5076407;28;20191;-69
2023/05/20 01:35:36;;;;;;;21.48;12.75;;;;;;;12.05;100.00;96541.31;5062334;28;20447;-70
2023/05/20 01:38:04;;;;;;;19.90;11.32;;;;;;;12.22;100.00;96542.59;5064642;28;20049;-70
2023/05/20 01:40:32;;;;;;;22.40;12.18;;;;;;;12.21;100.00;96543.78;5064510;28;20036;-68
2023/05/20 01:43:00;;;;;;;23.65;12.75;;;;;;;12.07;100.00;96546.41;5064593;28;20075;-69
2023/05/20 01:45:25;;;;;;;25.48;12.95;;;;;;;12.11;100.00;96533.50;5059803;28;20044;-67
2023/05/20 01:47:51;;;;;;;22.58;14.30;;;;;;;12.05;100.00;96542.09;5064315;28;20043;-68
2023/05/20 01:50:17;;;;;;;23.60;14.27;;;;;;;12.01;100.00;96537.72;5041070;28;20439;-69
2023/05/20 01:52:42;;;;;;;20.83;14.32;;;;;;;11.95;100.00;96542.00;5063916;28;20067;-69
2023/05/20 01:55:08;;;;;;;25.10;14.85;;;;;;;11.92;100.00;96540.00;5059692;28;20097;-68
2023/05/20 01:57:33;;;;;;;21.52;13.90;;;;;;;11.84;100.00;96530.91;5064291;28;20033;-68
2023/05/20 01:59:59;;;;;;;21.52;14.68;;;;;;;11.82;100.00;96536.75;5064170;28;20045;-68
2023/05/20 02:02:24;;;;;;;19.08;12.73;;;;;;;11.85;100.00;96544.25;5059197;28;20044;-71
2023/05/20 02:04:50;;;;;;;19.17;12.95;;;;;;;11.96;100.00;96540.84;5064861;28;20477;-69
2023/05/20 02:07:17;;;;;;;18.00;12.48;;;;;;;11.93;100.00;96533.34;5057637;28;20114;-68
2023/05/20 02:09:43;;;;;;;20.30;12.23;;;;;;;11.85;100.00;96533.28;5064407;28;20077;-70
2023/05/20 02:12:14;;;;;;;17.83;13.20;;;;;;;11.74;100.00;96532.41;5059078;28;20384;-71
2023/05/20 02:14:40;;;;;;;21.83;13.50;;;;;;;11.63;100.00;96526.81;5064565;28;20063;-68
2023/05/20 02:17:06;;;;;;;21.35;13.35;;;;;;;11.54;100.00;96534.56;5059278;28;20033;-69
2023/05/20 02:19:31;;;;;;;18.73;13.07;;;;;;;11.59;100.00;96522.44;5045590;28;20040;-68
2023/05/20 02:21:57;;;;;;;18.60;12.93;;;;;;;11.50;100.00;96530.19;5064165;28;20043;-69
2023/05/20 02:24:22;;;;;;;18.77;12.73;;;;;;;11.37;100.00;96522.22;5059710;28;20695;-67
2023/05/20 02:26:50;;;;;;;19.50;13.13;;;;;;;11.33;100.00;96509.66;5064545;28;20094;-68
2023/05/20 02:29:15;;;;;;;21.20;13.32;;;;;;;11.26;100.00;96516.63;5061369;28;20040;-68
2023/05/20 02:31:41;;;;;;;19.75;12.95;;;;;;;11.20;100.00;96512.66;5046164;28;20113;-70
2023/05/20 02:34:07;;;;;;;21.83;13.65;;;;;;;11.17;100.00;96502.44;5058103;28;20040;-68
2023/05/20 02:36:32;;;;;;;19.73;12.40;;;;;;;11.22;100.00;96496.63;5064508;28;20071;-68
2023/05/20 02:38:59;;;;;;;18.10;12.65;;;;;;;11.25;100.00;96495.88;5063966;28;20068;-68
2023/05/20 02:41:25;;;;;;;21.63;13.60;;;;;;;11.17;100.00;96509.88;5058716;28;20050;-68
2023/05/20 02:43:50;;;;;;;20.30;13.25;;;;;;;11.16;100.00;96508.28;5063317;28;20131;-67
2023/05/20 02:46:18;;;;;;;21.13;13.38;;;;;;;11.16;100.00;96508.28;5030838;28;20048;-69
2023/05/20 02:48:44;;;;;;;18.52;13.27;;;;;;;11.05;100.00;96508.16;5063569;28;20136;-68
2023/05/20 02:51:10;;;;;;;19.48;14.15;;;;;;;10.96;100.00;96505.72;5058132;28;20127;-69
2023/05/20 02:53:35;;;;;;;21.63;14.63;;;;;;;10.92;100.00;96517.81;5062758;28;20558;-69
2023/05/20 02:56:02;;;;;;;19.20;13.98;;;;;;;10.89;100.00;96516.59;5062903;28;20500;-68
2023/05/20 02:58:28;;;;;;;21.67;14.38;;;;;;;10.87;100.00;96516.19;5059402;28;20050;-68
2023/05/20 03:00:53;;;;;;;22.52;14.35;;;;;;;10.86;100.00;96517.34;5062857;28;20119;-69
2023/05/20 03:03:19;;;;;;;25.15;15.13;;;;;;;10.79;100.00;96509.84;5057606;28;20393;-68
2023/05/20 03:05:45;;;;;;;23.25;15.45;;;;;;;10.77;100.00;96516.81;5062996;28;20411;-69
2023/05/20 03:08:11;;;;;;;20.60;14.77;;;;;;;10.81;100.00;96520.41;5058357;28;20094;-70
2023/05/20 03:10:39;;;;;;;22.73;14.45;;;;;;;10.76;100.00;96518.00;5063098;28;20600;-69
2023/05/20 03:13:10;;;;;;;20.80;14.75;;;;;;;10.73;100.00;96521.47;5058268;28;20532;-74
2023/05/20 03:15:36;;;;;;;22.70;15.50;;;;;;;10.63;100.00;96512.75;5062728;28;20072;-68
2023/05/20 03:18:02;;;;;;;21.42;15.90;;;;;;;10.54;100.00;96504.03;5060431;28;20040;-72
2023/05/20 03:20:29;;;;;;;25.85;15.82;;;;;;;10.50;100.00;96523.16;5044046;28;20481;-68
2023/05/20 03:22:54;;;;;;;21.35;16.05;;;;;;;10.48;100.00;96514.53;5044594;28;20045;-67
2023/05/20 03:25:21;;;;;;;22.02;15.02;;;;;;;10.47;100.00;96514.88;5057694;28;20037;-68
2023/05/20 03:27:46;;;;;;;24.25;15.98;;;;;;;10.41;100.00;96510.91;5063541;28;20727;-68
2023/05/20 03:30:12;;;;;;;22.33;15.18;;;;;;;10.39;100.00;96505.78;5057194;28;20140;-67
2023/05/20 03:32:38;;;;;;;26.85;16.58;;;;;;;10.33;100.00;96502.59;5062388;28;20135;-67
2023/05/20 03:35:05;;;;;;;23.13;16.80;;;;;;;10.20;100.00;96509.41;5042244;28;20436;-72
2023/05/20 03:37:30;;;;;;;21.38;16.55;;;;;;;10.15;100.00;96506.97;5071977;28;20059;-68
2023/05/20 03:39:55;;;;;;;25.50;16.92;;;;;;;10.11;100.00;96506.13;5068828;28;20032;-68
2023/05/20 03:42:21;;;;;;;26.90;15.95;;;;;;;10.06;100.00;96514.66;5051797;28;20044;-68
2023/05/20 03:44:46;;;;;;;26.73;16.45;;;;;;;10.03;100.00;96512.63;5063899;28;20043;-68
2023/05/20 03:47:11;;;;;;;24.75;15.13;;;;;;;10.03;100.00;96505.25;5040413;28;20063;-68
2023/05/20 03:49:38;;;;;;;25.65;16.70;;;;;;;10.03;100.00;96504.44;5062481;28;20068;-67
2023/05/20 03:52:04;;;;;;;24.95;17.02;;;;;;;9.98;100.00;96505.56;5057348;28;20090;-73
2023/05/20 03:54:30;;;;;;;24.25;16.35;;;;;;;10.02;100.00;96500.13;5062003;28;20040;-67
2023/05/20 03:56:55;;;;;;;20.23;15.57;;;;;;;10.02;100.00;96502.88;5062340;28;20033;-67
2023/05/20 03:59:21;;;;;;;22.35;15.52;;;;;;;10.03;100.00;96501.69;5057092;28;20207;-67
2023/05/20 04:01:47;;;;;;;22.20;16.48;;;;;;;10.05;100.00;96511.13;5061538;28;20071;-68
2023/05/20 04:04:12;;;;;;;26.58;15.93;;;;;;;10.12;100.00;96505.78;5056743;28;20127;-67
2023/05/20 04:06:39;;;;;;;24.25;14.35;;;;;;;10.23;100.00;96511.41;5062586;28;20048;-67
2023/05/20 04:09:04;;;;;;;19.83;14.30;;;;;;;10.22;100.00;96519.97;5057781;28;20049;-73
2023/05/20 04:11:30;;;;;;;24.67;14.70;;;;;;;10.18;100.00;96519.16;5061444;28;20067;-69
2023/05/20 04:13:57;;;;;;;24.20;14.68;;;;;;;10.17;100.00;96517.56;5061934;28;20105;-68
2023/05/20 04:16:22;;;;;;;20.02;14.55;;;;;;;10.16;100.00;96513.25;5039924;28;20063;-71
2023/05/20 04:18:49;;;;;;;23.48;14.68;;;;;;;10.39;100.00;96513.19;5061621;28;20041;-68
2023/05/20 04:21:15;;;;;;;19.30;14.13;;;;;;;10.59;100.00;96522.88;5038321;28;20047;-69
2023/05/20 04:23:40;;;;;;;20.15;13.57;;;;;;;10.61;100.00;96519.78;5061452;28;20037;-67
2023/05/20 04:26:06;;;;;;;19.15;13.85;;;;;;;10.59;100.00;96517.41;5057319;28;20049;-68
2023/05/20 04:28:32;;;;;;;19.65;12.88;;;;;;;10.72;100.00;96512.47;5042446;28;20056;-68
2023/05/20 04:31:03;;;;;;;20.25;13.43;;;;;;;10.64;100.00;96505.31;5023719;28;20045;-66
2023/05/20 04:33:29;;;;;;;20.75;13.63;;;;;;;10.43;100.00;96512.09;5038212;28;20072;-67
2023/05/20 04:35:57;;;;;;;20.58;13.60;;;;;;;10.28;100.00;96505.63;5042270;28;20048;-66
2023/05/20 04:38:29;;;;;;;17.85;13.48;;;;;;;10.25;100.00;96502.81;5037890;28;20520;-68
2023/05/20 04:41:00;;;;;;;17.88;12.93;;;;;;;10.60;100.00;96501.75;5041330;28;20041;-67
2023/05/20 04:43:30;;;;;;;18.83;13.05;;;;;;;10.96;100.00;96510.41;5035993;28;20059;-68
2023/05/20 04:46:00;;;;;;;16.20;12.27;;;;;;;11.21;100.00;96506.00;5057375;28;20091;-72
2023/05/20 04:48:26;;;;;;;15.05;10.75;;;;;;;11.23;100.00;96500.91;5050712;28;20122;-68
2023/05/20 04:50:53;;;;;;;15.77;11.23;;;;;;;11.41;100.00;96498.38;5040860;28;20037;-69
2023/05/20 04:53:20;;;;;;;14.90;9.48;;;;;;;11.39;100.00;96499.91;5037980;28;20393;-69
2023/05/20 04:55:46;;;;;;;15.23;10.35;;;;;;;11.14;100.00;96500.44;5041699;28;20072;-69
2023/05/20 04:58:16;;;;;;;14.57;10.23;;;;;;;11.17;100.00;96494.22;5035387;28;20045;-69
2023/05/20 05:00:45;;;;;;;13.40;9.02;;;;;;;11.25;100.00;96478.63;5041638;28;20127;-68
2023/05/20 05:03:11;;;;;;;14.30;9.60;;;;;;;11.45;100.00;96484.69;5036242;28;20048;-68
2023/05/20 05:05:38;;;;;;;12.25;8.98;;;;;;;11.59;100.00;96484.81;5041025;28;20045;-68
2023/05/20 05:08:07;;;;;;;11.45;8.25;;;;;;;11.73;100.00;96484.16;5038311;28;20040;-75
2023/05/20 05:10:34;;;;;;;13.52;9.23;;;;;;;11.82;100.00;96483.84;5024042;28;20037;-67
2023/05/20 05:13:00;;;;;;;12.38;9.57;;;;;;;11.70;100.00;96487.66;5050866;28;20044;-70
2023/05/20 05:15:25;;;;;;;13.88;8.90;;;;;;;11.73;100.00;96488.88;5054536;28;20037;-68
2023/05/20 05:17:51;;;;;;;11.35;9.30;;;;;;;11.91;100.00;96491.78;5045257;28;20385;-69
2023/05/20 05:20:16;;;;;;;14.02;8.68;;;;;;;11.95;100.00;96481.63;5041232;28;20091;-68
2023/05/20 05:22:43;;;;;;;14.35;9.45;;;;;;;11.93;100.00;96486.69;5044800;28;20040;-67
2023/05/20 05:25:10;;;;;;;12.38;8.75;;;;;;;12.07;100.00;96475.81;5040129;28;20044;-67
2023/05/20 05:27:35;;;;;;;14.35;9.48;;;;;;;11.96;100.00;96480.47;5043955;28;20521;-67
2023/05/20 05:30:02;;;;;;;10.38;8.43;;;;;;;12.01;100.00;96480.06;5044695;28;20056;-67
2023/05/20 05:32:28;;;;;;;11.73;8.95;;;;;;;12.06;100.00;96479.72;5041377;28;20045;-69
2023/05/20 05:34:53;;;;;;;12.60;8.32;;;;;;;12.15;100.00;96487.63;5045207;28;20044;-68
2023/05/20 05:37:20;;;;;;;17.10;8.93;;;;;;;12.15;100.00;96473.91;5039021;28;20041;-67
2023/05/20 05:39:45;;;;;;;14.35;9.57;;;;;;;12.11;100.00;96467.63;5044318;28;20132;-67
2023/05/20 05:42:10;;;;;;;12.95;9.00;;;;;;;12.22;100.00;96466.50;5011349;28;20195;-67
2023/05/20 05:44:36;;;;;;;13.80;9.27;;;;;;;12.20;100.00;96463.34;5024893;28;20064;-68
2023/05/20 05:47:02;;;;;;;11.00;8.43;;;;;;;12.43;100.00;96471.34;5044624;28;20052;-68
2023/05/20 05:49:27;;;;;;;11.68;8.45;;;;;;;12.69;100.00;96472.22;5023865;28;20116;-67
2023/05/20 05:51:52;;;;;;;12.35;8.40;;;;;;;12.73;100.00;96472.25;5044414;28;20048;-68
2023/05/20 05:54:19;;;;;;;11.25;7.78;;;;;;;13.00;100.00;96464.53;5038123;28;20057;-68
2023/05/20 05:56:45;;;;;;;12.35;8.38;;;;;;;12.79;100.00;96479.75;5026722;28;20119;-68
2023/05/20 05:59:10;;;;;;;12.85;9.45;;;;;;;12.65;100.00;96474.19;5022058;28;20087;-68
2023/05/20 06:01:36;;;;;;;13.90;9.13;;;;;;;12.65;100.00;96482.44;5044187;28;20108;-70
2023/05/20 06:04:02;;;;;;;16.83;10.55;;;;;;;12.74;100.00;96482.09;5043462;28;20049;-68
2023/05/20 06:06:27;;;;;;;11.77;9.07;;;;;;;12.80;100.00;96486.03;5012087;28;20052;-67
2023/05/20 06:08:53;;;;;;;15.20;9.15;;;;;;;13.01;100.00;96502.59;5041826;28;20037;-67
2023/05/20 06:11:19;;;;;;;13.73;8.93;;;;;;;13.36;100.00;96497.63;5039339;28;20033;-68
2023/05/20 06:13:45;;;;;;;13.48;8.43;;;;;;;13.45;100.00;96486.25;5034719;28;20041;-68
2023/05/20 06:16:12;;;;;;;12.50;9.15;;;;;;;13.16;100.00;96481.44;5021924;28;20103;-69
2023/05/20 06:18:37;;;;;;;12.50;10.40;;;;;;;12.96;100.00;96481.00;5050231;28;20044;-68
2023/05/20 06:21:03;;;;;;;14.13;10.23;;;;;;;13.08;100.00;96473.56;5044087;28;20043;-73
2023/05/20 06:23:28;;;;;;;13.20;9.27;;;;;;;13.84;100.00;96468.97;5044586;28;20049;-66
2023/05/20 06:25:57;;;;;;;13.07;10.30;;;;;;;14.11;100.00;96450.84;5044656;28;20041;-68
2023/05/20 06:28:23;;;;;;;10.32;8.40;;;;;;;15.00;100.00;96443.53;5021755;28;20122;-70
2023/05/20 06:30:48;;;;;;;14.48;8.43;;;;;;;16.12;100.00;96454.56;5044487;28;20033;-68
2023/05/20 06:33:14;;;;;;;15.20;9.85;;;;;;;15.73;97.37;96452.88;5037742;28;20055;-68
2023/05/20 06:35:39;;;;;;;11.73;8.93;;;;;;;14.89;100.00;96451.84;5043704;28;20040;-69
2023/05/20 06:38:05;;;;;;;13.68;9.02;;;;;;;15.19;100.00;96452.47;5038108;28;20052;-70
2023/05/20 06:40:30;;;;;;;17.30;10.50;;;;;;;15.59;100.00;96453.81;5041223;28;20037;-68
2023/05/20 06:42:56;;;;;;;14.35;9.77;;;;;;;15.54;100.00;96454.22;5042605;28;20111;-69
2023/05/20 06:45:21;;;;;;;11.70;9.52;;;;;;;15.47;100.00;96459.78;5020313;28;20503;-69
2023/05/20 06:47:48;;;;;;;16.30;9.93;;;;;;;15.10;100.00;96450.16;5024592;28;20043;-68
2023/05/20 06:50:14;;;;;;;15.93;11.00;;;;;;;14.76;100.00;96442.44;5038391;28;20152;-68
2023/05/20 06:52:39;;;;;;;15.02;10.95;;;;;;;14.37;100.00;96450.81;5043902;28;20522;-68
2023/05/20 06:55:05;;;;;;;15.68;10.55;;;;;;;14.71;100.00;96460.19;5038267;28;20044;-69
2023/05/20 06:57:31;;;;;;;15.13;10.95;;;;;;;14.15;100.00;96459.09;5041231;28;20398;-68
2023/05/20 06:59:56;;;;;;;13.82;10.75;;;;;;;14.33;100.00;96454.38;5025170;28;20437;-68
2023/05/20 07:02:22;;;;;;;16.73;11.35;;;;;;;13.99;100.00;96451.28;5037168;28;20059;-68
2023/05/20 07:04:48;;;;;;;15.55;10.85;;;;;;;14.13;100.00;96461.47;5041578;28;20071;-67
2023/05/20 07:07:13;;;;;;;19.33;13.45;;;;;;;13.72;100.00;96451.69;5028308;28;20049;-68
2023/05/20 07:09:39;;;;;;;16.60;11.77;;;;;;;13.79;100.00;96442.63;5042751;28;20039;-68
2023/05/20 07:12:04;;;;;;;16.88;11.40;;;;;;;13.73;100.00;96450.50;5038056;28;20111;-72
2023/05/20 07:14:30;;;;;;;19.10;12.18;;;;;;;14.12;100.00;96449.69;5041973;28;20076;-69
2023/05/20 07:16:55;;;;;;;17.15;11.05;;;;;;;14.31;100.00;96445.72;5042819;28;20128;-69
2023/05/20 07:19:20;;;;;;;15.40;10.60;;;;;;;14.53;100.00;96454.72;5036920;28;20037;-70
2023/05/20 07:21:46;;;;;;;17.88;10.75;;;;;;;14.93;100.00;96443.56;5042924;28;20102;-70
2023/05/20 07:24:11;;;;;;;18.38;10.93;;;;;;;14.96;100.00;96451.00;5038522;28;20071;-68
2023/05/20 07:26:36;;;;;;;16.23;10.88;;;;;;;15.09;99.71;96443.09;5042976;28;20044;-71
2023/05/20 07:29:03;;;;;;;13.02;10.10;;;;;;;14.64;100.00;96451.94;5042190;28;20495;-75
2023/05/20 07:31:29;;;;;;;13.88;11.60;;;;;;;14.38;100.00;96447.66;5041061;28;20084;-71
2023/05/20 07:33:55;;;;;;;13.07;10.23;;;;;;;15.15;100.00;96446.97;5042187;28;20045;-68
2023/05/20 07:36:21;;;;;;;14.07;9.93;;;;;;;14.88;100.00;96447.50;5037414;28;20094;-68
2023/05/20 07:38:46;;;;;;;13.52;10.70;;;;;;;14.37;100.00;96442.53;5044355;28;20037;-71
2023/05/20 07:41:11;;;;;;;13.02;10.65;;;;;;;14.64;100.00;96432.66;5038577;28;20135;-69
2023/05/20 07:43:37;;;;;;;17.02;10.73;;;;;;;15.68;97.03;96439.50;5026799;28;20044;-71
2023/05/20 07:46:02;;;;;;;16.30;10.98;;;;;;;15.41;98.65;96425.53;5015029;28;20059;-67
2023/05/20 07:48:28;;;;;;;13.60;10.43;;;;;;;15.42;96.46;96430.63;5039771;28;20157;-71
2023/05/20 07:50:56;;;;;;;19.55;11.57;;;;;;;14.90;99.45;96425.03;5042923;28;20045;-72
2023/05/20 07:53:21;;;;;;;16.05;11.68;;;;;;;14.66;100.00;96429.50;5011808;28;20549;-71
2023/05/20 07:55:49;;;;;;;18.17;11.93;;;;;;;14.66;100.00;96435.78;5034231;28;20132;-69
2023/05/20 07:58:15;;;;;;;16.13;12.55;;;;;;;14.63;100.00;96427.53;5037263;28;20128;-72
2023/05/20 08:00:40;;;;;;;16.60;11.98;;;;;;;15.09;100.00;96437.56;5043544;28;20624;-70
2023/05/20 08:03:06;;;;;;;14.73;10.95;;;;;;;15.33;100.00;96446.09;5037158;28;20055;-70
2023/05/20 08:05:32;;;;;;;16.55;11.75;;;;;;;15.10;100.00;96448.16;5042211;28;20113;-71
2023/05/20 08:07:58;;;;;;;21.75;12.15;;;;;;;15.07;99.99;96439.91;5045454;28;20597;-71
2023/05/20 08:10:23;;;;;;;17.52;12.82;;;;;;;14.65;100.00;96436.19;5028507;28;20129;-70
2023/05/20 08:12:48;;;;;;;15.52;11.55;;;;;;;15.38;98.54;96440.94;5043197;28;20033;-69
2023/05/20 08:15:14;;;;;;;18.58;13.43;;;;;;;15.26;99.30;96435.88;5037596;28;20144;-71
2023/05/20 08:17:39;;;;;;;18.33;12.32;;;;;;;15.37;98.76;96427.53;5019399;28;20041;-71
2023/05/20 08:20:06;;;;;;;20.70;11.68;;;;;;;15.43;98.83;96432.22;5014881;28;20045;-67
2023/05/20 08:22:32;;;;;;;17.33;11.68;;;;;;;15.10;100.00;96423.34;5022147;28;20045;-71
2023/05/20 08:24:57;;;;;;;15.20;11.13;;;;;;;16.57;95.77;96439.91;5044459;28;20053;-70
2023/05/20 08:27:23;;;;;;;17.67;11.43;;;;;;;16.10;94.51;96432.09;5051031;28;20418;-69
2023/05/20 08:29:49;;;;;;;16.77;10.98;;;;;;;15.98;93.81;96435.34;5054724;28;20091;-71
2023/05/20 08:32:14;;;;;;;14.68;11.20;;;;;;;16.10;90.68;96431.28;5028565;28;20045;-70
2023/05/20 08:34:41;;;;;;;15.43;10.80;;;;;;;17.51;84.08;96436.69;5017579;28;20044;-70
2023/05/20 08:37:07;;;;;;;16.33;10.73;;;;;;;16.16;91.46;96424.91;5044671;28;20138;-71
2023/05/20 08:39:32;;;;;;;17.88;12.65;;;;;;;16.22;89.37;96436.31;5037409;28;20045;-68
2023/05/20 08:41:58;;;;;;;16.77;11.35;;;;;;;16.92;87.98;96433.16;5036153;28;20041;-68
2023/05/20 08:44:26;;;;;;;15.65;11.65;;;;;;;17.06;85.56;96428.66;5045114;28;20072;-70
2023/05/20 08:46:53;;;;;;;17.10;11.25;;;;;;;16.80;89.82;96428.16;5013565;28;20055;-71
2023/05/20 08:49:19;;;;;;;13.98;10.32;;;;;;;19.54;74.86;96433.28;5045266;28;20416;-70
2023/05/20 08:51:46;;;;;;;14.57;11.32;;;;;;;17.08;83.75;96440.06;5045670;28;20052;-71
2023/05/20 08:54:13;;;;;;;17.10;11.85;;;;;;;16.85;88.94;96435.25;5049980;28;20040;-67
2023/05/20 08:56:40;;;;;;;15.98;11.95;;;;;;;16.61;87.12;96426.81;5042137;28;20422;-71
2023/05/20 08:59:07;;;;;;;15.77;12.18;;;;;;;15.51;91.17;96423.91;5007516;28;20128;-68
2023/05/20 09:01:40;;;;;;;18.40;12.65;;;;;;;16.12;92.95;96417.88;5044681;28;20041;-71
2023/05/20 09:04:06;;;;;;;18.00;11.85;;;;;;;17.19;86.20;96422.13;5041957;28;20052;-65
2023/05/20 09:06:43;;;;;;;17.48;11.88;;;;;;;17.36;83.93;96434.16;5043928;28;20088;-71
2023/05/20 09:09:13;;;;;;;13.68;11.15;;;;;;;17.33;81.70;96434.19;5041940;28;20131;-71
2023/05/20 09:11:42;;;;;;;15.02;10.15;;;;;;;16.91;83.61;96439.91;5044830;28;20110;-70
2023/05/20 09:14:07;;;;;;;16.95;11.70;;;;;;;17.00;84.91;96422.81;5020544;28;20042;-71
2023/05/20 09:16:33;;;;;;;16.77;11.70;;;;;;;17.04;81.97;96423.53;5045793;28;20072;-69
2023/05/20 09:18:59;;;;;;;19.25;12.50;;;;;;;17.56;80.24;96416.84;5028013;28;20041;-68
2023/05/20 09:21:28;;;;;;;15.38;11.90;;;;;;;16.22;85.89;96423.28;5021843;28;20076;-71
2023/05/20 09:23:56;;;;;;;17.13;12.85;;;;;;;15.90;87.60;96429.13;5043765;28;20041;-68
2023/05/20 09:26:23;;;;;;;19.15;14.18;;;;;;;15.68;91.91;96422.94;5036523;28;20447;-68
2023/05/20 09:28:49;;;;;;;16.75;12.18;;;;;;;16.73;88.50;96417.97;5040697;28;20724;-68
2023/05/20 09:31:15;;;;;;;19.80;12.63;;;;;;;16.55;88.10;96418.19;5035920;28;20045;-68
2023/05/20 09:33:41;;;;;;;16.38;11.40;;;;;;;17.88;80.36;96423.84;5040404;28;20047;-68
2023/05/20 09:36:07;;;;;;;14.70;10.80;;;;;;;17.39;82.73;96419.47;5043783;28;20041;-71
2023/05/20 09:38:37;;;;;;;16.25;11.02;;;;;;;17.13;83.46;96423.78;5049015;28;20132;-71
2023/05/20 09:41:06;;;;;;;17.02;12.27;;;;;;;16.29;86.55;96413.34;5048317;28;20033;-65
2023/05/20 09:43:33;;;;;;;18.70;10.70;;;;;;;16.40;89.33;96409.28;5053543;28;20069;-68
2023/05/20 09:46:00;;;;;;;16.30;11.32;;;;;;;16.34;85.81;96421.97;5050549;28;20140;-72
2023/05/20 09:48:26;;;;;;;17.42;11.75;;;;;;;16.57;85.41;96426.06;5030061;28;20049;-70
2023/05/20 09:50:53;;;;;;;15.98;12.65;;;;;;;15.96;88.95;96413.66;5036027;28;20124;-71
2023/05/20 09:53:21;;;;;;;21.48;12.88;;;;;;;16.03;91.21;96416.38;5027915;28;20037;-71
2023/05/20 09:55:46;;;;;;;16.08;11.68;;;;;;;16.76;87.04;96417.16;5033352;28;20053;-71
2023/05/20 09:58:13;;;;;;;19.58;12.48;;;;;;;16.44;89.41;96412.00;5041691;28;20041;-69
2023/05/20 10:00:38;;;;;;;18.88;12.23;;;;;;;16.40;87.97;96402.94;5046298;28;20123;-70
2023/05/20 10:03:04;;;;;;;16.33;11.70;;;;;;;17.23;84.71;96412.97;5045784;28;20442;-67
2023/05/20 10:05:34;;;;;;;14.15;10.77;;;;;;;17.60;82.55;96414.03;5030741;28;20075;-71
2023/05/20 10:08:13;;;;;;;15.23;12.00;;;;;;;16.82;83.00;96417.47;5044899;28;20046;-71
2023/05/20 10:10:57;;;;;;;16.35;12.30;;;;;;;16.44;83.91;96410.00;5039794;28;20044;-71
2023/05/20 10:14:00;;;;;;;20.48;11.82;;;;;;;16.72;87.05;96405.34;5045870;28;20049;-69
2023/05/20 10:16:55;;;;;;;18.80;11.82;;;;;;;16.28;86.62;96412.56;5042933;28;20036;-72
2023/05/20 10:19:25;;;;;;;15.05;10.60;;;;;;;17.74;83.20;96399.94;5041993;28;20037;-71
2023/05/20 10:22:04;;;;;;;14.05;9.63;;;;;;;17.99;79.38;96413.41;5048338;28;20049;-71
2023/05/20 10:24:42;;;;;;;15.57;11.27;;;;;;;17.33;80.11;96409.28;5042295;28;20131;-71
2023/05/20 10:27:14;;;;;;;12.77;10.55;;;;;;;17.25;81.11;96411.38;5043725;28;20045;-70
2023/05/20 10:29:44;;;;;;;19.25;12.35;;;;;;;17.41;81.50;96407.97;5049648;28;20180;-68
2023/05/20 10:32:10;;;;;;;19.98;13.88;;;;;;;17.62;79.97;96406.06;5042615;28;20108;-70
2023/05/20 10:34:46;;;;;;;15.88;11.95;;;;;;;18.19;78.34;96407.91;5047281;28;20072;-70
2023/05/20 10:37:40;;;;;;;15.10;10.70;;;;;;;18.08;77.05;96394.22;5027647;28;20052;-70
2023/05/20 10:40:09;;;;;;;16.92;12.02;;;;;;;17.34;80.93;96405.28;5044004;28;20091;-68
2023/05/20 10:42:35;;;;;;;14.63;10.90;;;;;;;17.71;77.90;96398.78;5044319;28;20048;-68
2023/05/20 10:45:00;;;;;;;12.30;9.27;;;;;;;18.82;74.29;96404.31;5022835;28;20046;-68
2023/05/20 10:47:26;;;;;;;14.63;11.48;;;;;;;17.52;79.42;96397.53;5038057;28;20430;-68
2023/05/20 10:49:51;;;;;;;12.68;10.35;;;;;;;17.22;81.48;96403.91;5033928;28;20055;-69
2023/05/20 10:52:17;;;;;;;14.82;10.52;;;;;;;17.16;81.94;96400.03;5038400;28;20094;-69
2023/05/20 10:54:45;;;;;;;14.18;10.50;;;;;;;17.79;82.28;96391.16;5043067;28;20402;-68
2023/05/20 10:57:10;;;;;;;12.02;9.00;;;;;;;18.41;76.92;96385.31;5038560;28;20059;-69
2023/05/20 10:59:36;;;;;;;16.02;10.13;;;;;;;18.63;74.40;96391.97;5025629;28;20037;-68
2023/05/20 11:02:02;;;;;;;14.20;10.05;;;;;;;18.94;73.44;96379.88;5042945;28;20049;-69
2023/05/20 11:04:31;;;;;;;15.73;9.10;;;;;;;19.13;72.89;96381.84;5043653;28;20060;-68
2023/05/20 11:06:57;;;;;;;12.75;10.02;;;;;;;18.01;75.61;96385.28;5006154;28;20041;-69
2023/05/20 11:09:23;;;;;;;17.52;11.70;;;;;;;16.89;83.05;96383.41;5036995;28;20064;-69